Wagga Wagga, Australia
Current Conditions -  °F | °C
As of 5:00 AM on Tuesday 21 Oct 2014 (Local Time) from YSWG Reporting Station
Clear Clear  
Wind Chill: 55°   Ceiling: Unl
Heat Index: 55°   Visibility: 6mi
Dew Point: 43°   Wind: 16mph
Humidity: 63%   Direction: 90°E
Pressure: 30.3"   Gusts: NA
Location:  35.11°S, 147.37°E
Report Text: YSWG 201800Z AUTO 09014KT 9999 // NCD 13/06 Q1026
Loading
Personal Weather Stations






























Interactive Weather Map
Tropical Storm Tracking
New forecast layout! Learn more

10-Day Weather Forecast

Advertisements
Track Severe Weather on mobile